createdAt,value
2022-10-12T00:00:18.555Z,2.65
2022-10-12T00:02:44.994Z,2.55
2022-10-12T00:05:11.358Z,3.03
2022-10-12T00:07:38.057Z,2.83
2022-10-12T00:10:05.157Z,3.10
2022-10-12T00:12:31.605Z,3.22
2022-10-12T00:14:58.235Z,3.47
2022-10-12T00:17:24.540Z,2.95
2022-10-12T00:19:50.882Z,3.50
2022-10-12T00:22:17.210Z,3.22
2022-10-12T00:24:43.617Z,3.55
2022-10-12T00:27:09.958Z,3.28
2022-10-12T00:29:36.380Z,2.70
2022-10-12T00:32:02.781Z,2.75
2022-10-12T00:34:29.140Z,2.97
2022-10-12T00:36:56.412Z,2.60
2022-10-12T00:39:22.742Z,2.63
2022-10-12T00:41:49.105Z,2.67
2022-10-12T00:44:45.390Z,3.35
2022-10-12T00:47:30.679Z,2.60
2022-10-12T00:50:10.128Z,2.58
2022-10-12T00:52:53.878Z,2.58
2022-10-12T00:55:23.910Z,2.90
2022-10-12T00:57:53.102Z,4.20
2022-10-12T01:00:20.449Z,2.28
2022-10-12T01:02:49.977Z,2.72
2022-10-12T01:05:17.245Z,3.00
2022-10-12T01:07:43.891Z,3.03
2022-10-12T01:10:10.834Z,3.70
2022-10-12T01:12:38.670Z,2.17
2022-10-12T01:15:05.805Z,2.30
2022-10-12T01:17:53.091Z,2.85
2022-10-12T01:20:28.506Z,2.78
2022-10-12T01:23:06.962Z,2.95
2022-10-12T01:26:02.791Z,3.65
2022-10-12T01:28:52.368Z,2.65
2022-10-12T01:31:26.533Z,2.88
2022-10-12T01:34:02.064Z,2.50
2022-10-12T01:36:42.708Z,2.47
2022-10-12T01:39:18.632Z,3.13
2022-10-12T01:41:49.691Z,2.72
2022-10-12T01:44:23.671Z,2.78
2022-10-12T01:46:51.325Z,2.30
2022-10-12T01:49:22.495Z,2.78
2022-10-12T01:52:00.182Z,2.40
2022-10-12T01:55:07.486Z,3.15
2022-10-12T01:57:55.895Z,2.53
2022-10-12T02:00:22.462Z,2.88
2022-10-12T02:03:16.099Z,3.45
2022-10-12T02:05:57.329Z,2.83
2022-10-12T02:08:35.979Z,2.53
2022-10-12T02:11:14.197Z,2.65
2022-10-12T02:13:44.846Z,2.70
2022-10-12T02:16:15.935Z,2.75
2022-10-12T02:18:48.797Z,4.25
2022-10-12T02:21:20.586Z,3.65
2022-10-12T02:26:16.393Z,2.95
2022-10-12T02:28:44.462Z,3.03
2022-10-12T02:31:24.686Z,2.60
2022-10-12T02:34:01.208Z,2.60
2022-10-12T02:36:37.806Z,2.90
2022-10-12T02:39:16.954Z,3.58
2022-10-12T02:41:49.597Z,3.00
2022-10-12T02:44:23.769Z,2.95
2022-10-12T02:46:51.966Z,2.88
2022-10-12T02:49:19.070Z,3.10
2022-10-12T02:51:46.316Z,3.45
2022-10-12T02:54:13.166Z,3.60
2022-10-12T02:56:45.115Z,4.32
2022-10-12T02:59:12.853Z,4.22
2022-10-12T03:01:39.287Z,4.15
2022-10-12T03:04:05.742Z,3.63
2022-10-12T03:06:32.096Z,4.22
2022-10-12T03:08:58.651Z,3.13
2022-10-12T03:11:25.105Z,2.80
2022-10-12T03:13:55.591Z,3.65
2022-10-12T03:16:22.402Z,2.75
2022-10-12T03:18:48.723Z,3.55
2022-10-12T03:21:15.097Z,2.83
2022-10-12T03:23:41.622Z,3.78
2022-10-12T03:26:08.254Z,3.70
2022-10-12T03:28:35.001Z,4.25
2022-10-12T03:31:02.004Z,2.53
2022-10-12T03:33:28.296Z,3.20
2022-10-12T03:35:54.726Z,2.58
2022-10-12T03:38:21.106Z,2.40
2022-10-12T03:40:47.871Z,2.55
2022-10-12T03:43:14.457Z,2.65
2022-10-12T03:45:40.974Z,3.17
2022-10-12T03:48:07.500Z,3.45
2022-10-12T03:50:34.977Z,2.67
2022-10-12T03:53:02.858Z,3.05
2022-10-12T03:55:29.197Z,2.88
2022-10-12T03:57:55.502Z,4.07
2022-10-12T04:00:22.428Z,2.65
2022-10-12T04:02:48.781Z,2.75
2022-10-12T04:05:15.256Z,2.60
2022-10-12T04:07:41.573Z,2.40
2022-10-12T04:10:08.528Z,2.67
2022-10-12T04:12:34.859Z,3.97
2022-10-12T04:15:01.239Z,2.55
2022-10-12T04:17:27.564Z,2.50
2022-10-12T04:19:53.895Z,3.17
2022-10-12T04:22:20.278Z,3.85
2022-10-12T04:24:46.604Z,2.58
2022-10-12T04:27:12.905Z,3.67
2022-10-12T04:29:39.316Z,3.90
2022-10-12T04:32:08.848Z,3.10
2022-10-12T04:34:38.705Z,3.97
2022-10-12T04:37:05.074Z,2.72
2022-10-12T04:39:31.407Z,3.03
2022-10-12T04:41:57.792Z,3.00
2022-10-12T04:44:26.288Z,3.58
2022-10-12T04:46:56.093Z,3.65
2022-10-12T04:49:22.429Z,3.20
2022-10-12T04:51:48.856Z,3.00
2022-10-12T04:54:15.188Z,3.50
2022-10-12T04:56:46.799Z,2.95
2022-10-12T04:59:13.929Z,3.35
2022-10-12T05:01:40.423Z,3.17
2022-10-12T05:04:06.885Z,3.28
2022-10-12T05:06:33.251Z,3.05
2022-10-12T05:08:59.563Z,3.22
2022-10-12T05:11:25.985Z,3.13
2022-10-12T05:13:52.324Z,2.90
2022-10-12T05:16:18.643Z,2.80
2022-10-12T05:18:45.014Z,3.25
2022-10-12T05:21:11.370Z,4.65
2022-10-12T05:23:37.686Z,4.32
2022-10-12T05:26:04.314Z,3.20
2022-10-12T05:28:30.758Z,3.50
2022-10-12T05:30:57.143Z,3.25
2022-10-12T05:33:23.546Z,3.40
2022-10-12T05:35:54.711Z,3.38
2022-10-12T05:38:22.704Z,3.78
2022-10-12T05:40:49.069Z,3.28
2022-10-12T05:43:15.522Z,4.93
2022-10-12T05:45:42.747Z,3.35
2022-10-12T05:48:09.061Z,3.10
2022-10-12T05:50:35.393Z,3.20
2022-10-12T05:53:01.693Z,3.95
2022-10-12T05:55:28.278Z,4.80
2022-10-12T05:57:54.812Z,3.35
2022-10-12T06:00:21.929Z,3.55
2022-10-12T06:02:48.404Z,3.08
2022-10-12T06:05:15.184Z,3.15
2022-10-12T06:07:41.489Z,4.65
2022-10-12T06:10:08.811Z,4.22
2022-10-12T06:12:35.424Z,3.72
2022-10-12T06:15:01.932Z,3.40
2022-10-12T06:17:28.284Z,3.25
2022-10-12T06:19:54.607Z,3.63
2022-10-12T06:22:21.067Z,4.70
2022-10-12T06:24:47.387Z,4.95
2022-10-12T06:27:14.189Z,4.15
2022-10-12T06:29:40.493Z,4.43
2022-10-12T06:32:06.870Z,4.15
2022-10-12T06:34:33.196Z,3.90
2022-10-12T06:37:01.793Z,4.68
2022-10-12T06:39:28.563Z,3.90
2022-10-12T06:41:54.968Z,4.20
2022-10-12T06:44:22.438Z,4.63
2022-10-12T06:46:50.055Z,4.00
2022-10-12T06:49:17.473Z,4.72
2022-10-12T06:51:43.931Z,4.45
2022-10-12T06:54:10.284Z,4.30
2022-10-12T06:56:38.255Z,4.38
2022-10-12T06:59:04.560Z,5.78
2022-10-12T07:01:31.013Z,6.57
2022-10-12T07:04:00.717Z,4.82
2022-10-12T07:06:27.450Z,6.70
2022-10-12T07:08:54.385Z,6.70
2022-10-12T07:11:20.809Z,5.05
2022-10-12T07:13:47.164Z,5.13
2022-10-12T07:16:13.515Z,5.93
2022-10-12T07:18:40.111Z,5.25
2022-10-12T07:21:06.595Z,4.60
2022-10-12T07:23:33.981Z,4.85
2022-10-12T07:26:00.752Z,5.95
2022-10-12T07:28:27.588Z,6.07
2022-10-12T07:30:53.969Z,5.38
2022-10-12T07:33:20.337Z,5.35
2022-10-12T07:36:12.776Z,5.68
2022-10-12T07:38:43.918Z,5.35
2022-10-12T07:41:11.364Z,5.40
2022-10-12T07:43:38.961Z,4.68
2022-10-12T07:46:05.506Z,4.43
2022-10-12T07:48:32.141Z,4.10
2022-10-12T07:51:05.602Z,5.20
2022-10-12T07:53:34.014Z,4.13
2022-10-12T07:56:01.892Z,4.75
2022-10-12T07:58:28.550Z,4.65
2022-10-12T08:00:54.883Z,4.03
2022-10-12T08:03:21.190Z,3.63
2022-10-12T08:05:47.584Z,3.55
2022-10-12T08:08:14.214Z,4.45
2022-10-12T08:10:40.578Z,3.85
2022-10-12T08:13:06.906Z,4.30
2022-10-12T08:15:33.211Z,4.47
2022-10-12T08:17:59.510Z,4.15
2022-10-12T08:20:25.860Z,3.72
2022-10-12T08:22:52.156Z,3.80
2022-10-12T08:25:18.505Z,3.20
2022-10-12T08:27:45.276Z,2.80
2022-10-12T08:30:12.299Z,3.40
2022-10-12T08:32:38.654Z,2.95
2022-10-12T08:35:05.879Z,2.85
2022-10-12T08:37:32.191Z,3.25
2022-10-12T08:40:02.282Z,4.55
2022-10-12T08:42:56.516Z,3.20
2022-10-12T08:45:34.477Z,4.10
2022-10-12T08:48:09.906Z,2.83
2022-10-12T08:50:42.677Z,2.92
2022-10-12T08:53:19.226Z,2.53
2022-10-12T08:55:46.863Z,3.58
2022-10-12T08:58:17.623Z,3.30
2022-10-12T09:00:48.663Z,3.97
2022-10-12T09:03:44.384Z,4.22
2022-10-12T09:06:17.156Z,3.92
2022-10-12T09:08:56.107Z,3.25
2022-10-12T09:11:36.372Z,2.88
2022-10-12T09:14:11.546Z,2.75
2022-10-12T09:16:43.964Z,3.20
2022-10-12T09:19:19.399Z,2.72
2022-10-12T09:21:50.065Z,3.08
2022-10-12T09:24:22.296Z,3.10
2022-10-12T09:26:52.120Z,2.83
2022-10-12T09:29:25.832Z,2.20
2022-10-12T09:32:10.975Z,3.28
2022-10-12T09:34:37.474Z,2.50
2022-10-12T09:37:04.927Z,2.70
2022-10-12T09:39:35.375Z,2.92
2022-10-12T09:42:02.218Z,3.22
2022-10-12T09:44:31.909Z,2.40
2022-10-12T09:47:25.008Z,3.90
2022-10-12T09:49:53.091Z,5.53
2022-10-12T09:52:23.072Z,4.68
2022-10-12T09:55:05.977Z,2.78
2022-10-12T09:57:36.340Z,2.47
2022-10-12T10:00:06.611Z,3.17
2022-10-12T10:02:34.736Z,2.95
2022-10-12T10:05:23.822Z,2.70
2022-10-12T10:07:50.212Z,2.67
2022-10-12T10:10:26.600Z,2.40
2022-10-12T10:12:58.350Z,2.67
2022-10-12T10:15:35.618Z,2.15
2022-10-12T10:18:05.328Z,3.40
2022-10-12T10:20:43.347Z,3.10
2022-10-12T10:23:25.607Z,3.22
2022-10-12T10:26:10.810Z,4.80
2022-10-12T10:28:39.633Z,4.72
2022-10-12T10:31:17.227Z,3.45
2022-10-12T10:33:44.137Z,3.25
2022-10-12T10:36:26.326Z,3.88
2022-10-12T10:39:05.478Z,2.95
2022-10-12T10:41:37.882Z,2.67
2022-10-12T10:44:06.424Z,2.95
2022-10-12T10:46:36.100Z,2.88
2022-10-12T10:49:07.141Z,2.05
2022-10-12T10:51:53.427Z,2.65
2022-10-12T10:54:22.483Z,2.33
2022-10-12T10:56:57.464Z,2.15
2022-10-12T10:59:39.230Z,3.08
2022-10-12T11:02:34.673Z,2.90
2022-10-12T11:05:08.013Z,2.85
2022-10-12T11:07:48.239Z,2.28
2022-10-12T11:10:29.956Z,2.72
2022-10-12T11:13:06.146Z,1.85
2022-10-12T11:15:56.414Z,1.70
2022-10-12T11:18:35.357Z,2.08
2022-10-12T11:21:07.379Z,2.25
2022-10-12T11:23:57.942Z,2.05
2022-10-12T11:26:49.911Z,2.22
2022-10-12T11:29:18.004Z,2.22
2022-10-12T11:31:55.796Z,1.92
2022-10-12T11:34:25.037Z,1.88
2022-10-12T11:37:18.597Z,1.95
2022-10-12T11:39:46.795Z,2.65
2022-10-12T11:42:22.704Z,2.28
2022-10-12T11:44:50.131Z,2.00
2022-10-12T11:47:25.555Z,1.75
2022-10-12T11:49:59.002Z,1.83
2022-10-12T11:52:29.650Z,2.88
2022-10-12T11:55:15.320Z,2.30
2022-10-12T11:57:41.673Z,4.43
2022-10-12T12:00:22.456Z,3.63
2022-10-12T12:02:55.793Z,2.58
2022-10-12T12:05:22.307Z,4.05
2022-10-12T12:07:56.537Z,3.15
2022-10-12T12:10:31.629Z,2.08
2022-10-12T12:13:11.592Z,2.28
2022-10-12T12:15:39.879Z,2.85
2022-10-12T12:18:11.899Z,2.20
2022-10-12T12:20:44.192Z,2.10
2022-10-12T12:23:27.520Z,2.65
2022-10-12T12:26:18.076Z,2.88
2022-10-12T12:28:47.141Z,2.22
2022-10-12T12:31:17.713Z,2.00
2022-10-12T12:33:48.048Z,1.80
2022-10-12T12:36:37.930Z,2.55
2022-10-12T12:39:08.107Z,2.95
2022-10-12T12:42:01.339Z,4.07
2022-10-12T12:44:35.997Z,2.72
2022-10-12T12:47:02.288Z,2.15
2022-10-12T12:49:37.912Z,2.00
2022-10-12T12:52:18.955Z,2.65
2022-10-12T12:55:00.344Z,1.83
2022-10-12T12:57:43.586Z,2.53
2022-10-12T13:00:18.793Z,2.15
2022-10-12T13:03:18.996Z,1.98
2022-10-12T13:06:22.554Z,3.17
2022-10-12T13:09:05.130Z,2.65
2022-10-12T13:11:56.713Z,2.60
2022-10-12T13:14:59.739Z,2.33
2022-10-12T13:17:44.812Z,2.45
2022-10-12T13:20:18.794Z,2.10
2022-10-12T13:22:48.078Z,2.60
2022-10-12T13:25:35.645Z,2.13
2022-10-12T13:28:07.464Z,2.97
2022-10-12T13:33:36.456Z,3.88
2022-10-12T13:36:07.524Z,4.05
2022-10-12T13:38:38.424Z,3.70
2022-10-12T13:41:13.990Z,2.33
2022-10-12T13:43:57.093Z,2.78
2022-10-12T13:46:43.490Z,2.95
2022-10-12T13:49:21.716Z,2.22
2022-10-12T13:51:56.815Z,2.28
2022-10-12T13:54:39.215Z,2.22
2022-10-12T13:57:46.186Z,2.30
2022-10-12T14:00:15.346Z,2.28
2022-10-12T14:02:56.522Z,1.92
2022-10-12T14:05:26.247Z,2.50
2022-10-12T14:07:54.880Z,2.25
2022-10-12T14:10:29.590Z,2.65
2022-10-12T14:12:57.097Z,2.55
2022-10-12T14:15:27.656Z,2.72
2022-10-12T14:17:54.896Z,2.35
2022-10-12T14:20:33.116Z,1.80
2022-10-12T14:23:03.173Z,2.53
2022-10-12T14:25:32.134Z,1.58
2022-10-12T14:28:01.790Z,2.38
2022-10-12T14:30:34.572Z,2.20
2022-10-12T14:33:16.274Z,1.90
2022-10-12T14:35:48.128Z,2.15
2022-10-12T14:38:39.703Z,2.70
2022-10-12T14:41:32.676Z,1.85
2022-10-12T14:44:10.801Z,2.40
2022-10-12T14:46:43.953Z,2.00
2022-10-12T14:49:41.219Z,1.95
2022-10-12T14:52:19.825Z,2.58
2022-10-12T14:54:53.727Z,2.38
2022-10-12T14:57:21.065Z,2.92
2022-10-12T14:59:47.750Z,3.45
2022-10-12T15:02:21.554Z,2.30
2022-10-12T15:04:48.577Z,2.00
2022-10-12T15:07:20.760Z,2.00
2022-10-12T15:09:48.932Z,1.90
2022-10-12T15:12:18.042Z,2.38
2022-10-12T15:14:44.572Z,2.53
2022-10-12T15:17:13.650Z,2.33
2022-10-12T15:19:41.714Z,2.63
2022-10-12T15:22:14.187Z,3.42
2022-10-12T15:24:40.522Z,2.20
2022-10-12T15:27:06.912Z,2.03
2022-10-12T15:29:33.250Z,2.00
2022-10-12T15:31:59.706Z,1.65
2022-10-12T15:34:26.831Z,1.73
2022-10-12T15:36:53.451Z,2.17
2022-10-12T15:39:19.983Z,2.00
2022-10-12T15:41:46.592Z,1.60
2022-10-12T15:44:15.203Z,2.60
2022-10-12T15:46:43.060Z,1.95
2022-10-12T15:49:10.229Z,2.55
2022-10-12T15:51:40.911Z,1.80
2022-10-12T15:54:07.942Z,2.22
2022-10-12T15:56:34.305Z,2.20
2022-10-12T15:59:00.716Z,2.50
2022-10-12T16:01:27.085Z,1.75
2022-10-12T16:03:53.433Z,2.10
2022-10-12T16:06:20.472Z,2.13
2022-10-12T16:08:47.087Z,1.92
2022-10-12T16:11:15.674Z,2.55
2022-10-12T16:13:49.842Z,2.25
2022-10-12T16:16:18.976Z,2.33
2022-10-12T16:18:45.520Z,1.77
2022-10-12T16:21:12.120Z,2.13
2022-10-12T16:23:39.888Z,2.60
2022-10-12T16:26:09.997Z,1.73
2022-10-12T16:28:37.688Z,2.75
2022-10-12T16:31:10.513Z,1.80
2022-10-12T16:33:37.040Z,2.03
2022-10-12T16:36:13.230Z,2.28
2022-10-12T16:38:39.985Z,2.05
2022-10-12T16:41:15.440Z,1.88
2022-10-12T16:43:43.925Z,1.80
2022-10-12T16:46:11.197Z,1.75
2022-10-12T16:48:37.601Z,1.70
2022-10-12T16:51:11.624Z,2.20
2022-10-12T16:53:38.456Z,2.22
2022-10-12T16:56:05.103Z,1.85
2022-10-12T16:58:31.582Z,1.90
2022-10-12T17:00:58.250Z,1.75
2022-10-12T17:03:24.908Z,1.73
2022-10-12T17:05:59.174Z,1.67
2022-10-12T17:08:25.831Z,1.77
2022-10-12T17:10:52.222Z,4.90
2022-10-12T17:13:18.580Z,5.45
2022-10-12T17:15:44.923Z,3.63
2022-10-12T17:18:11.399Z,2.85
2022-10-12T17:20:37.783Z,1.95
2022-10-12T17:23:04.168Z,2.03
2022-10-12T17:25:30.673Z,1.83
2022-10-12T17:27:57.012Z,1.92
2022-10-12T17:30:23.361Z,2.70
2022-10-12T17:32:49.711Z,2.33
2022-10-12T17:35:16.164Z,2.80
2022-10-12T17:37:42.552Z,2.50
2022-10-12T17:40:10.527Z,2.40
2022-10-12T17:42:36.972Z,2.55
2022-10-12T17:45:03.657Z,3.28
2022-10-12T17:47:30.048Z,3.28
2022-10-12T17:49:56.422Z,2.95
2022-10-12T17:52:22.805Z,3.05
2022-10-12T17:54:49.113Z,3.13
2022-10-12T17:57:15.768Z,3.15
2022-10-12T17:59:42.421Z,2.70
2022-10-12T18:02:10.136Z,3.90
2022-10-12T18:04:36.692Z,4.07
2022-10-12T18:07:03.148Z,2.95
2022-10-12T18:09:31.032Z,3.22
2022-10-12T18:11:57.480Z,3.20
2022-10-12T18:14:23.848Z,4.05
2022-10-12T18:16:50.336Z,2.95
2022-10-12T18:19:16.791Z,2.72
2022-10-12T18:21:43.977Z,2.45
2022-10-12T18:24:16.349Z,2.67
2022-10-12T18:26:47.453Z,2.55
2022-10-12T18:29:14.358Z,2.90
2022-10-12T18:31:40.725Z,3.45
2022-10-12T18:34:07.200Z,2.30
2022-10-12T18:36:33.827Z,2.85
2022-10-12T18:39:03.061Z,2.22
2022-10-12T18:41:29.743Z,3.28
2022-10-12T18:43:58.046Z,3.90
2022-10-12T18:46:27.201Z,2.75
2022-10-12T18:48:53.878Z,2.70
2022-10-12T18:51:37.821Z,2.97
2022-10-12T18:54:05.360Z,2.88
2022-10-12T18:56:33.891Z,3.08
2022-10-12T18:59:00.462Z,2.45
2022-10-12T19:01:28.938Z,2.75
2022-10-12T19:03:56.751Z,3.22
2022-10-12T19:06:29.145Z,2.75
2022-10-12T19:08:56.387Z,3.08
2022-10-12T19:11:24.735Z,3.05
2022-10-12T19:13:57.086Z,3.20
2022-10-12T19:16:24.346Z,3.33
2022-10-12T19:19:00.961Z,2.30
2022-10-12T19:21:27.880Z,2.90
2022-10-12T19:23:54.804Z,2.67
2022-10-12T19:26:23.837Z,3.00
2022-10-12T19:28:51.619Z,2.88
2022-10-12T19:31:21.151Z,3.20
2022-10-12T19:33:47.993Z,2.88
2022-10-12T19:36:16.440Z,3.65
2022-10-12T19:38:43.366Z,2.05
2022-10-12T19:41:09.963Z,2.30
2022-10-12T19:43:37.567Z,2.60
2022-10-12T19:46:05.925Z,2.55
2022-10-12T19:48:32.528Z,2.50
2022-10-12T19:51:04.500Z,2.75
2022-10-12T19:53:31.046Z,2.97
2022-10-12T19:56:01.842Z,2.83
2022-10-12T19:58:28.616Z,2.80
2022-10-12T20:01:02.894Z,2.58
2022-10-12T20:03:29.615Z,2.63
2022-10-12T20:05:56.300Z,2.63
2022-10-12T20:08:22.664Z,2.25
2022-10-12T20:10:49.188Z,2.40
2022-10-12T20:13:16.151Z,2.55
2022-10-12T20:15:42.480Z,3.05
2022-10-12T20:18:08.972Z,2.53
2022-10-12T20:20:39.959Z,2.33
2022-10-12T20:23:06.310Z,2.55
2022-10-12T20:25:32.663Z,2.30
2022-10-12T20:28:02.629Z,3.38
2022-10-12T20:30:29.660Z,2.65
2022-10-12T20:32:56.006Z,2.90
2022-10-12T20:35:22.432Z,2.90
2022-10-12T20:37:48.799Z,2.60
2022-10-12T20:40:15.173Z,2.88
2022-10-12T20:42:41.533Z,3.03
2022-10-12T20:45:09.486Z,3.13
2022-10-12T20:47:35.939Z,3.05
2022-10-12T20:50:02.414Z,3.28
2022-10-12T20:52:28.849Z,3.15
2022-10-12T20:54:55.198Z,3.15
2022-10-12T20:57:21.580Z,3.15
2022-10-12T20:59:49.062Z,2.60
2022-10-12T21:02:16.954Z,3.20
2022-10-12T21:04:43.979Z,3.42
2022-10-12T21:07:14.379Z,3.15
2022-10-12T21:09:40.908Z,3.10
2022-10-12T21:12:07.429Z,3.17
2022-10-12T21:14:33.858Z,2.80
2022-10-12T21:17:00.292Z,2.85
2022-10-12T21:19:26.761Z,3.40
2022-10-12T21:21:53.206Z,3.33
2022-10-12T21:24:19.682Z,2.72
2022-10-12T21:26:46.153Z,2.90
2022-10-12T21:29:13.127Z,3.72
2022-10-12T21:31:39.481Z,3.20
2022-10-12T21:34:07.638Z,3.40
2022-10-12T21:36:36.497Z,3.88
2022-10-12T21:39:07.886Z,2.85
2022-10-12T21:41:34.203Z,3.28
2022-10-12T21:44:00.639Z,3.70
2022-10-12T21:46:30.039Z,2.80
2022-10-12T21:48:57.165Z,4.20
2022-10-12T21:51:24.713Z,3.40
2022-10-12T21:53:51.797Z,3.50
2022-10-12T21:56:23.973Z,3.38
2022-10-12T21:58:52.255Z,3.30
2022-10-12T22:01:23.676Z,3.60
2022-10-12T22:04:13.150Z,3.63
2022-10-12T22:06:39.673Z,3.63
2022-10-12T22:09:14.858Z,3.45
2022-10-12T22:11:41.311Z,3.53
2022-10-12T22:14:09.913Z,3.58
2022-10-12T22:16:36.893Z,3.88
2022-10-12T22:19:05.838Z,3.22
2022-10-12T22:21:33.263Z,3.22
2022-10-12T22:24:00.431Z,3.33
2022-10-12T22:26:27.185Z,3.50
2022-10-12T22:28:53.619Z,4.40
2022-10-12T22:31:21.841Z,4.18
2022-10-12T22:33:48.312Z,3.55
2022-10-12T22:36:15.358Z,3.28
2022-10-12T22:38:42.498Z,3.35
2022-10-12T22:41:17.040Z,3.50
2022-10-12T22:43:43.407Z,3.40
2022-10-12T22:46:10.158Z,2.90
2022-10-12T22:48:36.956Z,3.33
2022-10-12T22:51:04.582Z,3.72
2022-10-12T22:53:31.367Z,3.50
2022-10-12T22:56:06.634Z,3.13
2022-10-12T22:58:33.538Z,4.75
2022-10-12T23:01:08.536Z,3.50
2022-10-12T23:03:35.953Z,3.28
2022-10-12T23:06:03.363Z,3.63
2022-10-12T23:08:30.005Z,3.60
2022-10-12T23:11:04.738Z,4.30
2022-10-12T23:13:32.682Z,2.85
2022-10-12T23:16:07.573Z,3.38
2022-10-12T23:18:34.487Z,3.05
2022-10-12T23:21:05.154Z,3.53
2022-10-12T23:23:32.952Z,3.70
2022-10-12T23:26:01.411Z,3.40
2022-10-12T23:28:28.275Z,3.88
2022-10-12T23:30:54.839Z,4.60
2022-10-12T23:33:21.726Z,3.22
2022-10-12T23:35:56.332Z,3.35
2022-10-12T23:38:22.693Z,4.07
2022-10-12T23:40:49.071Z,3.40
2022-10-12T23:43:15.421Z,3.90
2022-10-12T23:45:43.654Z,3.47
2022-10-12T23:48:10.357Z,4.10
2022-10-12T23:50:38.106Z,4.00
2022-10-12T23:53:04.500Z,3.75
2022-10-12T23:55:32.552Z,3.85
2022-10-12T23:57:59.007Z,3.83
